Susan Ann — WCY5700 — position and weather

sailwx.info

Track history (hours):
 
Tides and Currents Weather Stations Pressure Air Temp Water Temp Dewpoint Dewpoint Depression Visibility Wind Speed Wind Dir Waves Ship Positions

Susan Ann

Owner: CROSS SOUND FERRY SERVICES INC, NEW LONDON, CT. More information available from US FCC via Universal Licensing System and Coast Guard Vessel Documentation Center.

Last reported at 2018-Feb-23 12:27 UTC. Time now 2018-Feb-23 12:37 UTC.
Position N 41°12' W 072°11'.

Length 72 m; draft 4 m.

Type: Passenger vessel. MMSI: 367354350.

Date/timePositionNaut miles runAvg speedWind from/ knotsBaromVisibWave heightAir tempDewpointWater temp
2018-Feb-23 12:27N 41°12' W 072°11'3 0.3
2018-Feb-23 01:10N 41°10' W 072°13'210.3
2018-Feb-23 00:59N 41°12' W 072°13'7 3.5
2018-Feb-22 22:52N 41°17' W 072°05'614.4
2018-Feb-22 22:27N 41°12' W 072°11'3 2.8
2018-Feb-22 21:15N 41°09' W 072°13'311.8
2018-Feb-22 21:00N 41°12' W 072°12'5 2.1
2018-Feb-22 18:49N 41°15' W 072°08'411.8
2018-Feb-22 18:27N 41°12' W 072°12'3 2.7
2018-Feb-22 17:11N 41°09' W 072°14'210.7
2018-Feb-22 17:00N 41°11' W 072°13'5 2.3
2018-Feb-22 14:43N 41°15' W 072°08'313.8
2018-Feb-22 14:29N 41°12' W 072°11'4 3.1
2018-Feb-22 13:14N 41°09' W 072°14'311.7
2018-Feb-22 12:59N 41°12' W 072°12'612.5
2018-Feb-22 12:30N 41°16' W 072°07'1 0.1
2018-Feb-22 00:42N 41°15' W 072°07'314.7
2018-Feb-22 00:29N 41°13' W 072°10'5 3.6
2018-Feb-21 23:12N 41°09' W 072°13'211.2
2018-Feb-21 23:00N 41°12' W 072°13'3 1.4
2018-Feb-21 20:34N 41°14' W 072°09'5 2.9
2018-Feb-21 19:01N 41°11' W 072°13'112.3
2018-Feb-21 18:59N 41°11' W 072°13'4 1.8
2018-Feb-21 16:36N 41°14' W 072°09'312.1
2018-Feb-21 16:23N 41°12' W 072°12'1 0.6
2018-Feb-21 14:56N 41°12' W 072°13'4 1.7
2018-Feb-21 12:39N 41°14' W 072°09'315.6
2018-Feb-21 12:30N 41°12' W 072°11'4 0.4
2018-Feb-21 01:22N 41°09' W 072°14'3 9.0
2018-Feb-21 01:00N 41°12' W 072°12'5 2.4
2018-Feb-20 22:44N 41°15' W 072°07'515.4
2018-Feb-20 22:25N 41°12' W 072°11'3 3.0
2018-Feb-20 21:17N 41°09' W 072°14'413.2
2018-Feb-20 21:00N 41°13' W 072°13'3 1.4
2018-Feb-20 18:35N 41°14' W 072°09'113.4
2018-Feb-20 18:30N 41°13' W 072°10'4 2.4
2018-Feb-20 17:02N 41°10' W 072°13'113.4
2018-Feb-20 16:58N 41°11' W 072°13'4 1.8
2018-Feb-20 14:45N 41°14' W 072°09'5 3.2
2018-Feb-20 13:19N 41°11' W 072°13'1 4.2
2018-Feb-20 13:00N 41°12' W 072°13'6 0.5
2018-Feb-20 02:33N 41°16' W 072°07'212.6
2018-Feb-20 02:22N 41°14' W 072°09'5 3.5
2018-Feb-20 01:04N 41°11' W 072°13'113.2
2018-Feb-20 00:57N 41°12' W 072°12'3 1.4
2018-Feb-19 22:37N 41°14' W 072°09'215.6
2018-Feb-19 22:29N 41°12' W 072°11'3 2.7
2018-Feb-19 21:12N 41°09' W 072°13'312.2
2018-Feb-19 20:59N 41°12' W 072°12'7 3.2
2018-Feb-19 18:53N 41°17' W 072°06'613.9
2018-Feb-19 18:28N 41°12' W 072°11'2 1.5
2018-Feb-19 17:03N 41°11' W 072°13'113.8
2018-Feb-19 16:58N 41°12' W 072°13'5 2.3
2018-Feb-19 14:46N 41°15' W 072°08'412.8
2018-Feb-19 14:26N 41°12' W 072°12'2 1.6
2018-Feb-19 13:03N 41°10' W 072°13'213.1
2018-Feb-19 12:55N 41°12' W 072°12'613.4
2018-Feb-19 12:30N 41°16' W 072°07'1 0.1
2018-Feb-19 00:51N 41°16' W 072°06'513.1
2018-Feb-19 00:27N 41°12' W 072°11'4 3.1
2018-Feb-18 23:13N 41°09' W 072°14'312.0
2018-Feb-18 23:01N 41°12' W 072°13'6 2.6
2018-Feb-18 20:44N 41°15' W 072°07'8 5.6
2018-Feb-18 19:15N 41°09' W 072°14'511.3
2018-Feb-18 18:51N 41°13' W 072°11'4 2.0
2018-Feb-18 16:48N 41°15' W 072°07'412.4
2018-Feb-18 16:26N 41°12' W 072°11'3 2.6
2018-Feb-18 15:07N 41°09' W 072°13'111.1
2018-Feb-18 15:00N 41°11' W 072°14'9 4.1
2018-Feb-18 12:55N 41°17' W 072°06'613.0
2018-Feb-18 12:28N 41°13' W 072°11'4 9.0
2018-Feb-18 12:00N 41°09' W 072°14'0 0.0
2018-Feb-18 11:30N 41°09' W 072°14'0 0.0
2018-Feb-18 01:22N 41°09' W 072°14'2 4.4
2018-Feb-18 01:00N 41°11' W 072°14'714.2
2018-Feb-18 00:30N 41°16' W 072°07'1 0.8
2018-Feb-17 22:52N 41°17' W 072°06'514.2
2018-Feb-17 22:30N 41°13' W 072°10'5 3.9
2018-Feb-17 21:20N 41°09' W 072°14'310.0
2018-Feb-17 21:00N 41°12' W 072°12'6 2.9
2018-Feb-17 18:51N 41°16' W 072°06'514.8
2018-Feb-17 18:30N 41°12' W 072°11'4 3.0
2018-Feb-17 17:11N 41°09' W 072°14'311.8
2018-Feb-17 16:58N 41°12' W 072°13'713.7
2018-Feb-17 16:29N 41°16' W 072°07'1 0.4
2018-Feb-17 14:56N 41°17' W 072°06'612.1
2018-Feb-17 14:26N 41°12' W 072°12'4 2.8
2018-Feb-17 13:09N 41°09' W 072°14'2 8.8
2018-Feb-17 12:59N 41°11' W 072°13'714.5
2018-Feb-17 12:30N 41°16' W 072°07'2 0.2
2018-Feb-17 02:44N 41°17' W 072°06'412.4
2018-Feb-17 02:25N 41°14' W 072°09'5 3.4
2018-Feb-17 01:00N 41°11' W 072°14'7 3.3
2018-Feb-16 22:56N 41°15' W 072°07'614.3
2018-Feb-16 22:30N 41°12' W 072°14'3 2.2
2018-Feb-16 21:11N 41°10' W 072°13'211.3
2018-Feb-16 20:59N 41°12' W 072°12'5 2.2
2018-Feb-16 18:42N 41°15' W 072°07'415.6
2018-Feb-16 18:28N 41°12' W 072°11'3 1.9
2018-Feb-16 17:06N 41°11' W 072°13'112.3
2018-Feb-16 17:00N 41°12' W 072°13'5 2.4
2018-Feb-16 14:48N 41°15' W 072°08'412.1
2018-Feb-16 14:26N 41°12' W 072°12'3 2.0
2018-Feb-16 13:07N 41°10' W 072°13'111.2
2018-Feb-16 13:00N 41°11' W 072°13'714.2
2018-Feb-16 12:30N 41°16' W 072°07'0 0.0
2018-Feb-16 00:54N 41°16' W 072°07'512.1
2018-Feb-16 00:31N 41°13' W 072°11'4 3.1
2018-Feb-15 23:14N 41°09' W 072°14'210.7
2018-Feb-15 23:00N 41°11' W 072°13'8 3.7
2018-Feb-15 20:58N 41°17' W 072°06'614.1
2018-Feb-15 20:30N 41°12' W 072°12'2 1.8
2018-Feb-15 19:13N 41°10' W 072°14'311.6
2018-Feb-15 18:59N 41°13' W 072°12'5 2.1
2018-Feb-15 16:47N 41°15' W 072°07'514.1
2018-Feb-15 16:28N 41°12' W 072°11'4 3.1
2018-Feb-15 15:15N 41°09' W 072°14'3 9.9
2018-Feb-15 14:59N 41°12' W 072°13'  
Track history (hours):
 
Tides and Currents Weather Stations Pressure Air Temp Water Temp Dewpoint Dewpoint Depression Visibility Wind Speed Wind Dir Waves Ship Positions

Susan Ann

Owner: CROSS SOUND FERRY SERVICES INC, NEW LONDON, CT. More information available from US FCC via Universal Licensing System and Coast Guard Vessel Documentation Center.

Last reported at 2018-Feb-23 12:27 UTC. Time now 2018-Feb-23 12:38 UTC.
Position N 41°12' W 072°11'.

Length 72 m; draft 4 m.

Type: Passenger vessel. MMSI: 367354350.

Date/timePositionNaut miles runAvg speedWind from/ knotsBaromVisibWave heightAir tempDewpointWater temp
2018-Feb-23 12:27N 41°12' W 072°11'3 0.3
2018-Feb-23 01:10N 41°10' W 072°13'210.3
2018-Feb-23 00:59N 41°12' W 072°13'7 3.5
2018-Feb-22 22:52N 41°17' W 072°05'614.4
2018-Feb-22 22:27N 41°12' W 072°11'3 2.8
2018-Feb-22 21:15N 41°09' W 072°13'311.8
2018-Feb-22 21:00N 41°12' W 072°12'5 2.1
2018-Feb-22 18:49N 41°15' W 072°08'411.8
2018-Feb-22 18:27N 41°12' W 072°12'3 2.7
2018-Feb-22 17:11N 41°09' W 072°14'210.7
2018-Feb-22 17:00N 41°11' W 072°13'5 2.3
2018-Feb-22 14:43N 41°15' W 072°08'313.8
2018-Feb-22 14:29N 41°12' W 072°11'4 3.1
2018-Feb-22 13:14N 41°09' W 072°14'311.7
2018-Feb-22 12:59N 41°12' W 072°12'612.5
2018-Feb-22 12:30N 41°16' W 072°07'1 0.1
2018-Feb-22 00:42N 41°15' W 072°07'314.7
2018-Feb-22 00:29N 41°13' W 072°10'5 3.6
2018-Feb-21 23:12N 41°09' W 072°13'211.2
2018-Feb-21 23:00N 41°12' W 072°13'3 1.4
2018-Feb-21 20:34N 41°14' W 072°09'5 2.9
2018-Feb-21 19:01N 41°11' W 072°13'112.3
2018-Feb-21 18:59N 41°11' W 072°13'4 1.8
2018-Feb-21 16:36N 41°14' W 072°09'312.1
2018-Feb-21 16:23N 41°12' W 072°12'1 0.6
2018-Feb-21 14:56N 41°12' W 072°13'4 1.7
2018-Feb-21 12:39N 41°14' W 072°09'315.6
2018-Feb-21 12:30N 41°12' W 072°11'4 0.4
2018-Feb-21 01:22N 41°09' W 072°14'3 9.0
2018-Feb-21 01:00N 41°12' W 072°12'5 2.4
2018-Feb-20 22:44N 41°15' W 072°07'515.4
2018-Feb-20 22:25N 41°12' W 072°11'3 3.0
2018-Feb-20 21:17N 41°09' W 072°14'413.2
2018-Feb-20 21:00N 41°13' W 072°13'3 1.4
2018-Feb-20 18:35N 41°14' W 072°09'113.4
2018-Feb-20 18:30N 41°13' W 072°10'4 2.4
2018-Feb-20 17:02N 41°10' W 072°13'113.4
2018-Feb-20 16:58N 41°11' W 072°13'4 1.8
2018-Feb-20 14:45N 41°14' W 072°09'5 3.2
2018-Feb-20 13:19N 41°11' W 072°13'1 4.2
2018-Feb-20 13:00N 41°12' W 072°13'6 0.5
2018-Feb-20 02:33N 41°16' W 072°07'212.6
2018-Feb-20 02:22N 41°14' W 072°09'5 3.5
2018-Feb-20 01:04N 41°11' W 072°13'113.2
2018-Feb-20 00:57N 41°12' W 072°12'3 1.4
2018-Feb-19 22:37N 41°14' W 072°09'215.6
2018-Feb-19 22:29N 41°12' W 072°11'3 2.7
2018-Feb-19 21:12N 41°09' W 072°13'312.2
2018-Feb-19 20:59N 41°12' W 072°12'7 3.2
2018-Feb-19 18:53N 41°17' W 072°06'613.9
2018-Feb-19 18:28N 41°12' W 072°11'2 1.5
2018-Feb-19 17:03N 41°11' W 072°13'113.8
2018-Feb-19 16:58N 41°12' W 072°13'5 2.3
2018-Feb-19 14:46N 41°15' W 072°08'412.8
2018-Feb-19 14:26N 41°12' W 072°12'2 1.6
2018-Feb-19 13:03N 41°10' W 072°13'213.1
2018-Feb-19 12:55N 41°12' W 072°12'613.4
2018-Feb-19 12:30N 41°16' W 072°07'1 0.1
2018-Feb-19 00:51N 41°16' W 072°06'513.1
2018-Feb-19 00:27N 41°12' W 072°11'4 3.1
2018-Feb-18 23:13N 41°09' W 072°14'312.0
2018-Feb-18 23:01N 41°12' W 072°13'6 2.6
2018-Feb-18 20:44N 41°15' W 072°07'8 5.6
2018-Feb-18 19:15N 41°09' W 072°14'511.3
2018-Feb-18 18:51N 41°13' W 072°11'4 2.0
2018-Feb-18 16:48N 41°15' W 072°07'412.4
2018-Feb-18 16:26N 41°12' W 072°11'3 2.6
2018-Feb-18 15:07N 41°09' W 072°13'111.1
2018-Feb-18 15:00N 41°11' W 072°14'9 4.1
2018-Feb-18 12:55N 41°17' W 072°06'613.0
2018-Feb-18 12:28N 41°13' W 072°11'4 9.0
2018-Feb-18 12:00N 41°09' W 072°14'0 0.0
2018-Feb-18 11:30N 41°09' W 072°14'0 0.0
2018-Feb-18 01:22N 41°09' W 072°14'2 4.4
2018-Feb-18 01:00N 41°11' W 072°14'714.2
2018-Feb-18 00:30N 41°16' W 072°07'1 0.8
2018-Feb-17 22:52N 41°17' W 072°06'514.2
2018-Feb-17 22:30N 41°13' W 072°10'5 3.9
2018-Feb-17 21:20N 41°09' W 072°14'310.0
2018-Feb-17 21:00N 41°12' W 072°12'6 2.9
2018-Feb-17 18:51N 41°16' W 072°06'514.8
2018-Feb-17 18:30N 41°12' W 072°11'4 3.0
2018-Feb-17 17:11N 41°09' W 072°14'311.8
2018-Feb-17 16:58N 41°12' W 072°13'713.7
2018-Feb-17 16:29N 41°16' W 072°07'1 0.4
2018-Feb-17 14:56N 41°17' W 072°06'612.1
2018-Feb-17 14:26N 41°12' W 072°12'4 2.8
2018-Feb-17 13:09N 41°09' W 072°14'2 8.8
2018-Feb-17 12:59N 41°11' W 072°13'714.5
2018-Feb-17 12:30N 41°16' W 072°07'2 0.2
2018-Feb-17 02:44N 41°17' W 072°06'412.4
2018-Feb-17 02:25N 41°14' W 072°09'5 3.4
2018-Feb-17 01:00N 41°11' W 072°14'7 3.3
2018-Feb-16 22:56N 41°15' W 072°07'614.3
2018-Feb-16 22:30N 41°12' W 072°14'3 2.2
2018-Feb-16 21:11N 41°10' W 072°13'211.3
2018-Feb-16 20:59N 41°12' W 072°12'5 2.2
2018-Feb-16 18:42N 41°15' W 072°07'415.6
2018-Feb-16 18:28N 41°12' W 072°11'3 1.9
2018-Feb-16 17:06N 41°11' W 072°13'112.3
2018-Feb-16 17:00N 41°12' W 072°13'5 2.4
2018-Feb-16 14:48N 41°15' W 072°08'412.1
2018-Feb-16 14:26N 41°12' W 072°12'3 2.0
2018-Feb-16 13:07N 41°10' W 072°13'111.2
2018-Feb-16 13:00N 41°11' W 072°13'714.2
2018-Feb-16 12:30N 41°16' W 072°07'0 0.0
2018-Feb-16 00:54N 41°16' W 072°07'512.1
2018-Feb-16 00:31N 41°13' W 072°11'4 3.1
2018-Feb-15 23:14N 41°09' W 072°14'210.7
2018-Feb-15 23:00N 41°11' W 072°13'8 3.7
2018-Feb-15 20:58N 41°17' W 072°06'614.1
2018-Feb-15 20:30N 41°12' W 072°12'2 1.8
2018-Feb-15 19:13N 41°10' W 072°14'311.6
2018-Feb-15 18:59N 41°13' W 072°12'5 2.1
2018-Feb-15 16:47N 41°15' W 072°07'514.1
2018-Feb-15 16:28N 41°12' W 072°11'4 3.1
2018-Feb-15 15:15N 41°09' W 072°14'3 9.9
2018-Feb-15 14:59N 41°12' W 072°13'  

Dump ship's entire track history